Eira — OJJP — position and weather

sailwx.info

Track history (hours):
 
Tides and Currents Weather Stations Pressure Air Temp Water Temp Dewpoint Dewpoint Depression Visibility Wind Speed Wind Dir Waves Ship Positions

Eira

Last reported at 2016-May-27 15:32 UTC. Time now 2016-May-27 16:08 UTC.
Position N 59°53' E 030°11'.

Length 157 m; draft 7.7 m.

Type: Cargo ship. MMSI: 230935000.

Date/timePositionNaut miles runAvg speedWind from/ knotsBaromVisibWave heightAir tempDewpointWater temp
2016-May-27 15:32N 59°53' E 030°11'0 0.0
2016-May-27 14:32N 59°53' E 030°11'0 0.0
2016-May-27 13:32N 59°53' E 030°11'0 0.0
2016-May-27 12:32N 59°53' E 030°11'0 0.0
2016-May-27 11:32N 59°53' E 030°11'0 0.0
2016-May-27 10:32N 59°53' E 030°11'0 0.0
2016-May-27 09:32N 59°53' E 030°11'0 0.0
2016-May-27 08:32N 59°53' E 030°11'0 0.0
2016-May-27 07:32N 59°53' E 030°11'0 0.0
2016-May-27 06:32N 59°53' E 030°11'0 0.0
2016-May-27 05:32N 59°53' E 030°11'0 0.0
2016-May-27 04:32N 59°53' E 030°11'0 0.4
2016-May-27 03:33N 59°53' E 030°11'9 9.0
2016-May-27 02:33N 59°56' E 029°54'1210.1
2016-May-27 01:24N 60°01' E 029°33'8 8.9
2016-May-27 00:28N 60°01' E 029°16'1112.1
2016-May-26 23:34N 60°02' E 028°54'1313.3
2016-May-26 22:34N 60°03' E 028°28'1313.3
2016-May-26 21:33N 60°09' E 028°04'1211.6
2016-May-26 20:31N 60°09' E 027°39'1212.3
2016-May-26 19:32N 60°02' E 027°19'1211.9
2016-May-26 18:33N 59°58' E 026°57'1212.2
2016-May-26 17:33N 59°58' E 026°33'1712.5
2016-May-26 16:10N 59°54' E 025°60'5912.7
2016-May-26 11:33N 59°41' E 024°06'1312.6
2016-May-26 10:32N 59°39' E 023°41'1212.5
2016-May-26 09:33N 59°38' E 023°16'3912.4
2016-May-26 06:23N 59°35' E 021°59'1012.6
2016-May-26 05:33N 59°34' E 021°38'1211.9
2016-May-26 04:33N 59°42' E 021°21'1110.6
2016-May-26 03:33N 59°52' E 021°28'1111.0
2016-May-26 02:32N 60°01' E 021°42'12 0.5
2016-May-25 01:31N 60°14' E 021°43'1110.4
2016-May-25 00:28N 60°03' E 021°41'910.1
2016-May-24 23:33N 59°54' E 021°34'10 9.9
2016-May-24 22:33N 59°47' E 021°21'1010.5
2016-May-24 21:34N 59°37' E 021°28'1010.2
2016-May-24 20:34N 59°32' E 021°45'1111.1
2016-May-24 19:34N 59°34' E 022°07'2511.3
2016-May-24 17:22N 59°38' E 022°55'911.5
2016-May-24 16:34N 59°40' E 023°13'1211.5
2016-May-24 15:33N 59°43' E 023°35'1111.3
2016-May-24 14:33N 59°45' E 023°57'1311.5
2016-May-24 13:26N 59°48' E 024°23'3811.6
2016-May-24 10:10N 59°55' E 025°36'911.9
2016-May-24 09:24N 59°56' E 025°54'1111.7
2016-May-24 08:30N 59°59' E 026°15'1111.8
2016-May-24 07:33N 60°01' E 026°37'1311.7
2016-May-24 06:28N 59°60' E 027°02'1111.4
2016-May-24 05:33N 60°05' E 027°20'1211.7
2016-May-24 04:33N 60°10' E 027°41'1111.2
2016-May-24 03:33N 60°10' E 028°03'1111.5
2016-May-24 02:33N 60°05' E 028°24'10 9.9
2016-May-24 01:33N 59°57' E 028°35'1111.1
2016-May-24 00:33N 59°47' E 028°25'5 5.4
2016-May-23 23:33N 59°41' E 028°25'0 0.0
2016-May-23 22:33N 59°41' E 028°25'0 0.0
2016-May-23 21:33N 59°41' E 028°25'0 0.0
2016-May-23 20:33N 59°41' E 028°25'0 0.0
2016-May-23 19:33N 59°41' E 028°25'0 0.0
2016-May-23 18:24N 59°41' E 028°25'0 0.0
2016-May-23 17:24N 59°41' E 028°25'0 0.0
2016-May-23 16:24N 59°41' E 028°25'0 0.0
2016-May-23 15:27N 59°41' E 028°25'0 0.0
2016-May-23 14:27N 59°41' E 028°25'0 0.0
2016-May-23 13:15N 59°41' E 028°25'0 0.0
2016-May-23 12:30N 59°41' E 028°25'0 0.0
2016-May-23 11:30N 59°41' E 028°25'0 0.0
2016-May-23 10:33N 59°41' E 028°25'0 0.0
2016-May-23 09:33N 59°41' E 028°25'0 0.0
2016-May-23 08:33N 59°41' E 028°25'0 0.0
2016-May-23 07:33N 59°41' E 028°25'0 0.0
2016-May-23 06:33N 59°41' E 028°25'0 0.0
2016-May-23 05:33N 59°41' E 028°25'0 0.0
2016-May-23 04:24N 59°41' E 028°25'0 0.0
2016-May-23 03:27N 59°41' E 028°25'0 0.0
2016-May-23 02:27N 59°41' E 028°25'0 0.0
2016-May-23 01:27N 59°41' E 028°25'0 0.0
2016-May-23 00:30N 59°41' E 028°25'0 0.4
2016-May-22 23:34N 59°41' E 028°24'6 6.1
2016-May-22 22:33N 59°45' E 028°15'1211.8
2016-May-22 21:33N 59°56' E 028°09'1212.1
2016-May-22 20:33N 60°08' E 028°04'1111.5
2016-May-22 19:33N 60°09' E 027°41'1212.1
2016-May-22 18:33N 60°03' E 027°20'1211.8
2016-May-22 17:33N 59°58' E 026°59'1211.9
2016-May-22 16:33N 59°59' E 026°35'1212.1
2016-May-22 15:34N 59°56' E 026°12'5512.2
2016-May-22 11:04N 59°44' E 024°25'612.3
2016-May-22 10:33N 59°43' E 024°12'1212.3
2016-May-22 09:34N 59°41' E 023°48'1312.5
2016-May-22 08:34N 59°39' E 023°24'1212.1
2016-May-22 07:33N 59°37' E 022°60'2412.1
2016-May-22 05:33N 59°35' E 022°12'1212.3
2016-May-22 04:33N 59°35' E 021°48'1111.0
2016-May-22 03:34N 59°38' E 021°27'1211.6
2016-May-22 02:34N 59°49' E 021°21'1212.5
2016-May-22 01:34N 59°57' E 021°40'4 0.2
2016-May-20 23:26N 60°01' E 021°42'910.4
2016-May-20 22:33N 59°53' E 021°32'9 9.1
2016-May-20 21:33N 59°46' E 021°21'1110.9
2016-May-20 20:33N 59°36' E 021°30'1010.2
2016-May-20 19:33N 59°32' E 021°48'1111.2
2016-May-20 18:33N 59°34' E 022°11'2211.2
2016-May-20 16:33N 59°38' E 022°54'1111.2
2016-May-20 15:33N 59°40' E 023°16'1111.1
2016-May-20 14:33N 59°43' E 023°37'1111.1
2016-May-20 13:33N 59°45' E 023°59'1111.1
2016-May-20 12:33N 59°47' E 024°20'1211.0
2016-May-20 11:30N 59°50' E 024°43'3311.1
2016-May-20 08:31N 59°56' E 025°47'1111.1
2016-May-20 07:33N 59°58' E 026°08'1111.2
2016-May-20 06:34N 60°01' E 026°30'1111.0
2016-May-20 05:33N 60°00' E 026°52'1010.4
2016-May-20 04:33N 60°02' E 027°12'1410.8
2016-May-20 03:18N 60°09' E 027°36'810.1
2016-May-20 02:32N 60°11' E 027°51'1111.0
2016-May-20 01:33N 60°09' E 028°12'1110.9
2016-May-20 00:33N 60°03' E 028°31'9 8.8
2016-May-19 23:33N 59°55' E 028°32'1212.5
2016-May-19 22:33N 59°43' E 028°23'2 1.8
2016-May-19 21:31N 59°41' E 028°25'0 0.0
2016-May-19 20:31N 59°41' E 028°25'0 0.0
2016-May-19 19:31N 59°41' E 028°25'0 0.0
2016-May-19 18:31N 59°41' E 028°25'0 0.0
2016-May-19 17:31N 59°41' E 028°25'0 0.0
2016-May-19 16:22N 59°41' E 028°25'0 0.0
2016-May-19 15:22N 59°41' E 028°25'0 0.0
2016-May-19 14:19N 59°41' E 028°25'0 0.0
2016-May-19 13:25N 59°41' E 028°25'0 0.0
2016-May-19 12:25N 59°41' E 028°25'0 0.0
2016-May-19 11:28N 59°41' E 028°25'0 0.0
2016-May-19 10:28N 59°41' E 028°25'0 0.0
2016-May-19 09:28N 59°41' E 028°25'0 0.0
2016-May-19 08:31N 59°41' E 028°25'0 0.0
2016-May-19 07:31N 59°41' E 028°25'0 0.0
2016-May-19 06:31N 59°41' E 028°25'0 0.0
2016-May-19 05:31N 59°41' E 028°25'0 0.0
2016-May-19 04:31N 59°41' E 028°25'0 0.0
2016-May-19 03:31N 59°41' E 028°25'0 0.0
2016-May-19 02:31N 59°41' E 028°25'0 0.0
2016-May-19 01:22N 59°41' E 028°25'0 0.0
2016-May-19 00:25N 59°41' E 028°25'0 0.0
2016-May-18 23:25N 59°41' E 028°25'0 0.0
2016-May-18 22:25N 59°41' E 028°25'0 0.0
2016-May-18 21:33N 59°41' E 028°25'5 4.8
2016-May-18 20:33N 59°43' E 028°16'1111.4
2016-May-18 19:33N 59°54' E 028°10'1211.6
2016-May-18 18:33N 60°05' E 028°06'1110.9
2016-May-18 17:34N 60°11' E 027°47'1212.3
2016-May-18 16:34N 60°05' E 027°26'1212.3
2016-May-18 15:34N 59°58' E 027°05'1211.7
2016-May-18 14:33N 59°59' E 026°41'1211.7
2016-May-18 13:34N 59°57' E 026°19'1211.7
2016-May-18 12:33N 59°54' E 025°56'1111.2
2016-May-18 11:32N 59°53' E 025°33'  
Track history (hours):
 
Tides and Currents Weather Stations Pressure Air Temp Water Temp Dewpoint Dewpoint Depression Visibility Wind Speed Wind Dir Waves Ship Positions

Eira

Last reported at 2016-May-27 15:32 UTC. Time now 2016-May-27 16:08 UTC.
Position N 59°53' E 030°11'.

Length 157 m; draft 7.7 m.

Type: Cargo ship. MMSI: 230935000.

Date/timePositionNaut miles runAvg speedWind from/ knotsBaromVisibWave heightAir tempDewpointWater temp
2016-May-27 15:32N 59°53' E 030°11'0 0.0
2016-May-27 14:32N 59°53' E 030°11'0 0.0
2016-May-27 13:32N 59°53' E 030°11'0 0.0
2016-May-27 12:32N 59°53' E 030°11'0 0.0
2016-May-27 11:32N 59°53' E 030°11'0 0.0
2016-May-27 10:32N 59°53' E 030°11'0 0.0
2016-May-27 09:32N 59°53' E 030°11'0 0.0
2016-May-27 08:32N 59°53' E 030°11'0 0.0
2016-May-27 07:32N 59°53' E 030°11'0 0.0
2016-May-27 06:32N 59°53' E 030°11'0 0.0
2016-May-27 05:32N 59°53' E 030°11'0 0.0
2016-May-27 04:32N 59°53' E 030°11'0 0.4
2016-May-27 03:33N 59°53' E 030°11'9 9.0
2016-May-27 02:33N 59°56' E 029°54'1210.1
2016-May-27 01:24N 60°01' E 029°33'8 8.9
2016-May-27 00:28N 60°01' E 029°16'1112.1
2016-May-26 23:34N 60°02' E 028°54'1313.3
2016-May-26 22:34N 60°03' E 028°28'1313.3
2016-May-26 21:33N 60°09' E 028°04'1211.6
2016-May-26 20:31N 60°09' E 027°39'1212.3
2016-May-26 19:32N 60°02' E 027°19'1211.9
2016-May-26 18:33N 59°58' E 026°57'1212.2
2016-May-26 17:33N 59°58' E 026°33'1712.5
2016-May-26 16:10N 59°54' E 025°60'5912.7
2016-May-26 11:33N 59°41' E 024°06'1312.6
2016-May-26 10:32N 59°39' E 023°41'1212.5
2016-May-26 09:33N 59°38' E 023°16'3912.4
2016-May-26 06:23N 59°35' E 021°59'1012.6
2016-May-26 05:33N 59°34' E 021°38'1211.9
2016-May-26 04:33N 59°42' E 021°21'1110.6
2016-May-26 03:33N 59°52' E 021°28'1111.0
2016-May-26 02:32N 60°01' E 021°42'12 0.5
2016-May-25 01:31N 60°14' E 021°43'1110.4
2016-May-25 00:28N 60°03' E 021°41'910.1
2016-May-24 23:33N 59°54' E 021°34'10 9.9
2016-May-24 22:33N 59°47' E 021°21'1010.5
2016-May-24 21:34N 59°37' E 021°28'1010.2
2016-May-24 20:34N 59°32' E 021°45'1111.1
2016-May-24 19:34N 59°34' E 022°07'2511.3
2016-May-24 17:22N 59°38' E 022°55'911.5
2016-May-24 16:34N 59°40' E 023°13'1211.5
2016-May-24 15:33N 59°43' E 023°35'1111.3
2016-May-24 14:33N 59°45' E 023°57'1311.5
2016-May-24 13:26N 59°48' E 024°23'3811.6
2016-May-24 10:10N 59°55' E 025°36'911.9
2016-May-24 09:24N 59°56' E 025°54'1111.7
2016-May-24 08:30N 59°59' E 026°15'1111.8
2016-May-24 07:33N 60°01' E 026°37'1311.7
2016-May-24 06:28N 59°60' E 027°02'1111.4
2016-May-24 05:33N 60°05' E 027°20'1211.7
2016-May-24 04:33N 60°10' E 027°41'1111.2
2016-May-24 03:33N 60°10' E 028°03'1111.5
2016-May-24 02:33N 60°05' E 028°24'10 9.9
2016-May-24 01:33N 59°57' E 028°35'1111.1
2016-May-24 00:33N 59°47' E 028°25'5 5.4
2016-May-23 23:33N 59°41' E 028°25'0 0.0
2016-May-23 22:33N 59°41' E 028°25'0 0.0
2016-May-23 21:33N 59°41' E 028°25'0 0.0
2016-May-23 20:33N 59°41' E 028°25'0 0.0
2016-May-23 19:33N 59°41' E 028°25'0 0.0
2016-May-23 18:24N 59°41' E 028°25'0 0.0
2016-May-23 17:24N 59°41' E 028°25'0 0.0
2016-May-23 16:24N 59°41' E 028°25'0 0.0
2016-May-23 15:27N 59°41' E 028°25'0 0.0
2016-May-23 14:27N 59°41' E 028°25'0 0.0
2016-May-23 13:15N 59°41' E 028°25'0 0.0
2016-May-23 12:30N 59°41' E 028°25'0 0.0
2016-May-23 11:30N 59°41' E 028°25'0 0.0
2016-May-23 10:33N 59°41' E 028°25'0 0.0
2016-May-23 09:33N 59°41' E 028°25'0 0.0
2016-May-23 08:33N 59°41' E 028°25'0 0.0
2016-May-23 07:33N 59°41' E 028°25'0 0.0
2016-May-23 06:33N 59°41' E 028°25'0 0.0
2016-May-23 05:33N 59°41' E 028°25'0 0.0
2016-May-23 04:24N 59°41' E 028°25'0 0.0
2016-May-23 03:27N 59°41' E 028°25'0 0.0
2016-May-23 02:27N 59°41' E 028°25'0 0.0
2016-May-23 01:27N 59°41' E 028°25'0 0.0
2016-May-23 00:30N 59°41' E 028°25'0 0.4
2016-May-22 23:34N 59°41' E 028°24'6 6.1
2016-May-22 22:33N 59°45' E 028°15'1211.8
2016-May-22 21:33N 59°56' E 028°09'1212.1
2016-May-22 20:33N 60°08' E 028°04'1111.5
2016-May-22 19:33N 60°09' E 027°41'1212.1
2016-May-22 18:33N 60°03' E 027°20'1211.8
2016-May-22 17:33N 59°58' E 026°59'1211.9
2016-May-22 16:33N 59°59' E 026°35'1212.1
2016-May-22 15:34N 59°56' E 026°12'5512.2
2016-May-22 11:04N 59°44' E 024°25'612.3
2016-May-22 10:33N 59°43' E 024°12'1212.3
2016-May-22 09:34N 59°41' E 023°48'1312.5
2016-May-22 08:34N 59°39' E 023°24'1212.1
2016-May-22 07:33N 59°37' E 022°60'2412.1
2016-May-22 05:33N 59°35' E 022°12'1212.3
2016-May-22 04:33N 59°35' E 021°48'1111.0
2016-May-22 03:34N 59°38' E 021°27'1211.6
2016-May-22 02:34N 59°49' E 021°21'1212.5
2016-May-22 01:34N 59°57' E 021°40'4 0.2
2016-May-20 23:26N 60°01' E 021°42'910.4
2016-May-20 22:33N 59°53' E 021°32'9 9.1
2016-May-20 21:33N 59°46' E 021°21'1110.9
2016-May-20 20:33N 59°36' E 021°30'1010.2
2016-May-20 19:33N 59°32' E 021°48'1111.2
2016-May-20 18:33N 59°34' E 022°11'2211.2
2016-May-20 16:33N 59°38' E 022°54'1111.2
2016-May-20 15:33N 59°40' E 023°16'1111.1
2016-May-20 14:33N 59°43' E 023°37'1111.1
2016-May-20 13:33N 59°45' E 023°59'1111.1
2016-May-20 12:33N 59°47' E 024°20'1211.0
2016-May-20 11:30N 59°50' E 024°43'3311.1
2016-May-20 08:31N 59°56' E 025°47'1111.1
2016-May-20 07:33N 59°58' E 026°08'1111.2
2016-May-20 06:34N 60°01' E 026°30'1111.0
2016-May-20 05:33N 60°00' E 026°52'1010.4
2016-May-20 04:33N 60°02' E 027°12'1410.8
2016-May-20 03:18N 60°09' E 027°36'810.1
2016-May-20 02:32N 60°11' E 027°51'1111.0
2016-May-20 01:33N 60°09' E 028°12'1110.9
2016-May-20 00:33N 60°03' E 028°31'9 8.8
2016-May-19 23:33N 59°55' E 028°32'1212.5
2016-May-19 22:33N 59°43' E 028°23'2 1.8
2016-May-19 21:31N 59°41' E 028°25'0 0.0
2016-May-19 20:31N 59°41' E 028°25'0 0.0
2016-May-19 19:31N 59°41' E 028°25'0 0.0
2016-May-19 18:31N 59°41' E 028°25'0 0.0
2016-May-19 17:31N 59°41' E 028°25'0 0.0
2016-May-19 16:22N 59°41' E 028°25'0 0.0
2016-May-19 15:22N 59°41' E 028°25'0 0.0
2016-May-19 14:19N 59°41' E 028°25'0 0.0
2016-May-19 13:25N 59°41' E 028°25'0 0.0
2016-May-19 12:25N 59°41' E 028°25'0 0.0
2016-May-19 11:28N 59°41' E 028°25'0 0.0
2016-May-19 10:28N 59°41' E 028°25'0 0.0
2016-May-19 09:28N 59°41' E 028°25'0 0.0
2016-May-19 08:31N 59°41' E 028°25'0 0.0
2016-May-19 07:31N 59°41' E 028°25'0 0.0
2016-May-19 06:31N 59°41' E 028°25'0 0.0
2016-May-19 05:31N 59°41' E 028°25'0 0.0
2016-May-19 04:31N 59°41' E 028°25'0 0.0
2016-May-19 03:31N 59°41' E 028°25'0 0.0
2016-May-19 02:31N 59°41' E 028°25'0 0.0
2016-May-19 01:22N 59°41' E 028°25'0 0.0
2016-May-19 00:25N 59°41' E 028°25'0 0.0
2016-May-18 23:25N 59°41' E 028°25'0 0.0
2016-May-18 22:25N 59°41' E 028°25'0 0.0
2016-May-18 21:33N 59°41' E 028°25'5 4.8
2016-May-18 20:33N 59°43' E 028°16'1111.4
2016-May-18 19:33N 59°54' E 028°10'1211.6
2016-May-18 18:33N 60°05' E 028°06'1110.9
2016-May-18 17:34N 60°11' E 027°47'1212.3
2016-May-18 16:34N 60°05' E 027°26'1212.3
2016-May-18 15:34N 59°58' E 027°05'1211.7
2016-May-18 14:33N 59°59' E 026°41'1211.7
2016-May-18 13:34N 59°57' E 026°19'1211.7
2016-May-18 12:33N 59°54' E 025°56'1111.2
2016-May-18 11:32N 59°53' E 025°33'  

Dump ship's entire track history